sensor_id;sensor_type;location;lat;lon;timestamp;temperature;humidity
3944;DHT22;1986;52.546;13.428;2023-06-24T00:01:54;20.50;99.90
3944;DHT22;1986;52.546;13.428;2023-06-24T00:04:21;20.50;99.90
3944;DHT22;1986;52.546;13.428;2023-06-24T00:06:48;20.60;99.90
3944;DHT22;1986;52.546;13.428;2023-06-24T00:09:17;20.60;99.90
3944;DHT22;1986;52.546;13.428;2023-06-24T00:11:46;20.70;99.90
3944;DHT22;1986;52.546;13.428;2023-06-24T00:14:13;20.70;99.90
3944;DHT22;1986;52.546;13.428;2023-06-24T00:16:40;20.70;99.90
3944;DHT22;1986;52.546;13.428;2023-06-24T00:19:09;20.70;99.90
3944;DHT22;1986;52.546;13.428;2023-06-24T00:21:35;20.80;99.90
3944;DHT22;1986;52.546;13.428;2023-06-24T00:24:03;20.80;99.90
3944;DHT22;1986;52.546;13.428;2023-06-24T00:26:31;20.80;99.90
3944;DHT22;1986;52.546;13.428;2023-06-24T00:28:58;20.80;99.90
3944;DHT22;1986;52.546;13.428;2023-06-24T00:31:25;20.80;99.90
3944;DHT22;1986;52.546;13.428;2023-06-24T00:33:52;20.80;99.90
3944;DHT22;1986;52.546;13.428;2023-06-24T00:36:20;20.80;99.90
3944;DHT22;1986;52.546;13.428;2023-06-24T00:38:47;20.80;99.90
3944;DHT22;1986;52.546;13.428;2023-06-24T00:41:16;20.80;99.90
3944;DHT22;1986;52.546;13.428;2023-06-24T00:43:44;20.80;99.90
3944;DHT22;1986;52.546;13.428;2023-06-24T00:46:11;20.80;99.90
3944;DHT22;1986;52.546;13.428;2023-06-24T00:48:41;20.80;99.90
3944;DHT22;1986;52.546;13.428;2023-06-24T00:51:09;20.90;99.90
3944;DHT22;1986;52.546;13.428;2023-06-24T00:53:37;20.80;99.90
3944;DHT22;1986;52.546;13.428;2023-06-24T00:56:07;20.80;99.90
3944;DHT22;1986;52.546;13.428;2023-06-24T00:58:35;20.90;99.90
3944;DHT22;1986;52.546;13.428;2023-06-24T01:01:04;20.90;99.90
3944;DHT22;1986;52.546;13.428;2023-06-24T01:03:34;20.90;99.90
3944;DHT22;1986;52.546;13.428;2023-06-24T01:06:06;20.90;99.90
3944;DHT22;1986;52.546;13.428;2023-06-24T01:08:33;20.80;99.90
3944;DHT22;1986;52.546;13.428;2023-06-24T01:11:03;20.80;99.90
3944;DHT22;1986;52.546;13.428;2023-06-24T01:13:30;20.80;99.90
3944;DHT22;1986;52.546;13.428;2023-06-24T01:16:00;20.80;99.90
3944;DHT22;1986;52.546;13.428;2023-06-24T01:18:33;20.80;99.90
3944;DHT22;1986;52.546;13.428;2023-06-24T01:21:05;20.80;99.90
3944;DHT22;1986;52.546;13.428;2023-06-24T01:24:03;20.80;99.90
3944;DHT22;1986;52.546;13.428;2023-06-24T01:27:09;20.80;99.90
3944;DHT22;1986;52.546;13.428;2023-06-24T01:29:56;20.80;99.90
3944;DHT22;1986;52.546;13.428;2023-06-24T01:32:32;20.70;99.90
3944;DHT22;1986;52.546;13.428;2023-06-24T01:35:04;20.70;99.90
3944;DHT22;1986;52.546;13.428;2023-06-24T01:37:37;20.70;99.90
3944;DHT22;1986;52.546;13.428;2023-06-24T01:40:08;20.60;99.90
3944;DHT22;1986;52.546;13.428;2023-06-24T01:42:38;20.60;99.90
3944;DHT22;1986;52.546;13.428;2023-06-24T01:45:07;20.60;99.90
3944;DHT22;1986;52.546;13.428;2023-06-24T01:47:38;20.60;99.90
3944;DHT22;1986;52.546;13.428;2023-06-24T01:50:11;20.50;99.90
3944;DHT22;1986;52.546;13.428;2023-06-24T01:52:42;20.50;99.90
3944;DHT22;1986;52.546;13.428;2023-06-24T01:55:11;20.50;99.90
3944;DHT22;1986;52.546;13.428;2023-06-24T01:57:40;20.40;99.90
3944;DHT22;1986;52.546;13.428;2023-06-24T02:00:10;20.40;99.90
3944;DHT22;1986;52.546;13.428;2023-06-24T02:02:39;20.40;99.90
3944;DHT22;1986;52.546;13.428;2023-06-24T02:05:08;20.40;99.90
3944;DHT22;1986;52.546;13.428;2023-06-24T02:07:36;20.30;99.90
3944;DHT22;1986;52.546;13.428;2023-06-24T02:10:05;20.30;99.90
3944;DHT22;1986;52.546;13.428;2023-06-24T02:12:33;20.20;99.90
3944;DHT22;1986;52.546;13.428;2023-06-24T02:15:01;20.20;99.90
3944;DHT22;1986;52.546;13.428;2023-06-24T02:17:30;20.20;99.90
3944;DHT22;1986;52.546;13.428;2023-06-24T02:19:59;20.10;99.90
3944;DHT22;1986;52.546;13.428;2023-06-24T02:22:26;20.10;99.90
3944;DHT22;1986;52.546;13.428;2023-06-24T02:24:54;20.00;99.90
3944;DHT22;1986;52.546;13.428;2023-06-24T02:27:21;19.90;99.90
3944;DHT22;1986;52.546;13.428;2023-06-24T02:29:49;19.90;99.90
3944;DHT22;1986;52.546;13.428;2023-06-24T02:32:18;19.90;99.90
3944;DHT22;1986;52.546;13.428;2023-06-24T02:34:45;19.80;99.90
3944;DHT22;1986;52.546;13.428;2023-06-24T02:37:14;19.90;99.90
3944;DHT22;1986;52.546;13.428;2023-06-24T02:39:44;19.80;99.90
3944;DHT22;1986;52.546;13.428;2023-06-24T02:42:18;19.80;99.90
3944;DHT22;1986;52.546;13.428;2023-06-24T02:44:45;19.80;99.90
3944;DHT22;1986;52.546;13.428;2023-06-24T02:47:15;19.70;99.90
3944;DHT22;1986;52.546;13.428;2023-06-24T02:49:45;19.60;99.90
3944;DHT22;1986;52.546;13.428;2023-06-24T02:52:18;19.60;99.90
3944;DHT22;1986;52.546;13.428;2023-06-24T02:54:45;19.50;99.90
3944;DHT22;1986;52.546;13.428;2023-06-24T02:57:12;19.50;99.90
3944;DHT22;1986;52.546;13.428;2023-06-24T02:59:41;19.50;99.90
3944;DHT22;1986;52.546;13.428;2023-06-24T03:02:08;19.40;99.90
3944;DHT22;1986;52.546;13.428;2023-06-24T03:04:36;19.40;99.90
3944;DHT22;1986;52.546;13.428;2023-06-24T03:07:04;19.40;99.90
3944;DHT22;1986;52.546;13.428;2023-06-24T03:09:35;19.30;99.90
3944;DHT22;1986;52.546;13.428;2023-06-24T03:12:02;19.30;99.90
3944;DHT22;1986;52.546;13.428;2023-06-24T03:14:29;19.30;99.90
3944;DHT22;1986;52.546;13.428;2023-06-24T03:16:56;19.30;99.90
3944;DHT22;1986;52.546;13.428;2023-06-24T03:19:23;19.30;99.90
3944;DHT22;1986;52.546;13.428;2023-06-24T03:21:50;19.20;99.90
3944;DHT22;1986;52.546;13.428;2023-06-24T03:24:17;19.20;99.90
3944;DHT22;1986;52.546;13.428;2023-06-24T03:26:45;19.20;99.90
3944;DHT22;1986;52.546;13.428;2023-06-24T03:29:12;19.20;99.90
3944;DHT22;1986;52.546;13.428;2023-06-24T03:31:39;19.20;99.90
3944;DHT22;1986;52.546;13.428;2023-06-24T03:34:11;19.10;99.90
3944;DHT22;1986;52.546;13.428;2023-06-24T03:36:39;19.10;99.90
3944;DHT22;1986;52.546;13.428;2023-06-24T03:39:05;19.10;99.90
3944;DHT22;1986;52.546;13.428;2023-06-24T03:41:32;19.10;99.90
3944;DHT22;1986;52.546;13.428;2023-06-24T03:44:01;19.00;99.90
3944;DHT22;1986;52.546;13.428;2023-06-24T03:46:28;19.00;99.90
3944;DHT22;1986;52.546;13.428;2023-06-24T03:48:58;19.00;99.90
3944;DHT22;1986;52.546;13.428;2023-06-24T03:51:25;18.90;99.90
3944;DHT22;1986;52.546;13.428;2023-06-24T03:53:52;18.90;99.90
3944;DHT22;1986;52.546;13.428;2023-06-24T03:56:19;18.80;99.90
3944;DHT22;1986;52.546;13.428;2023-06-24T03:58:46;18.80;99.90
3944;DHT22;1986;52.546;13.428;2023-06-24T04:01:14;18.80;99.90
3944;DHT22;1986;52.546;13.428;2023-06-24T04:03:43;18.80;99.90
3944;DHT22;1986;52.546;13.428;2023-06-24T04:06:11;18.80;99.90
3944;DHT22;1986;52.546;13.428;2023-06-24T04:08:38;18.90;99.90
3944;DHT22;1986;52.546;13.428;2023-06-24T04:11:05;19.10;99.90
3944;DHT22;1986;52.546;13.428;2023-06-24T04:13:33;19.20;99.90
3944;DHT22;1986;52.546;13.428;2023-06-24T04:16:00;19.10;99.90
3944;DHT22;1986;52.546;13.428;2023-06-24T04:18:28;19.00;99.90
3944;DHT22;1986;52.546;13.428;2023-06-24T04:20:55;18.90;99.90
3944;DHT22;1986;52.546;13.428;2023-06-24T04:23:23;18.90;99.90
3944;DHT22;1986;52.546;13.428;2023-06-24T04:25:50;18.80;99.90
3944;DHT22;1986;52.546;13.428;2023-06-24T04:28:17;18.70;99.90
3944;DHT22;1986;52.546;13.428;2023-06-24T04:30:44;18.80;99.90
3944;DHT22;1986;52.546;13.428;2023-06-24T04:33:11;19.00;99.90
3944;DHT22;1986;52.546;13.428;2023-06-24T04:35:39;18.80;99.90
3944;DHT22;1986;52.546;13.428;2023-06-24T04:38:06;18.80;99.90
3944;DHT22;1986;52.546;13.428;2023-06-24T04:40:33;18.80;99.90
3944;DHT22;1986;52.546;13.428;2023-06-24T04:43:00;18.70;99.90
3944;DHT22;1986;52.546;13.428;2023-06-24T04:45:29;18.70;99.90
3944;DHT22;1986;52.546;13.428;2023-06-24T04:47:56;18.70;99.90
3944;DHT22;1986;52.546;13.428;2023-06-24T04:50:23;18.70;99.90
3944;DHT22;1986;52.546;13.428;2023-06-24T04:52:55;18.70;99.90
3944;DHT22;1986;52.546;13.428;2023-06-24T04:55:22;18.70;99.90
3944;DHT22;1986;52.546;13.428;2023-06-24T04:57:50;18.60;99.90
3944;DHT22;1986;52.546;13.428;2023-06-24T05:00:17;18.60;99.90
3944;DHT22;1986;52.546;13.428;2023-06-24T05:02:44;18.60;99.90
3944;DHT22;1986;52.546;13.428;2023-06-24T05:05:11;18.60;99.90
3944;DHT22;1986;52.546;13.428;2023-06-24T05:07:37;18.70;99.90
3944;DHT22;1986;52.546;13.428;2023-06-24T05:10:07;18.70;99.90
3944;DHT22;1986;52.546;13.428;2023-06-24T05:12:34;18.80;99.90
3944;DHT22;1986;52.546;13.428;2023-06-24T05:15:01;18.80;99.90
3944;DHT22;1986;52.546;13.428;2023-06-24T05:17:28;18.90;99.90
3944;DHT22;1986;52.546;13.428;2023-06-24T05:19:55;18.90;99.90
3944;DHT22;1986;52.546;13.428;2023-06-24T05:22:22;19.00;99.90
3944;DHT22;1986;52.546;13.428;2023-06-24T05:24:49;19.00;99.90
3944;DHT22;1986;52.546;13.428;2023-06-24T05:27:17;19.00;99.90
3944;DHT22;1986;52.546;13.428;2023-06-24T05:29:44;18.80;99.90
3944;DHT22;1986;52.546;13.428;2023-06-24T05:32:11;18.80;99.90
3944;DHT22;1986;52.546;13.428;2023-06-24T05:34:38;19.00;99.90
3944;DHT22;1986;52.546;13.428;2023-06-24T05:37:05;19.10;99.90
3944;DHT22;1986;52.546;13.428;2023-06-24T05:39:32;19.30;99.90
3944;DHT22;1986;52.546;13.428;2023-06-24T05:41:59;19.40;99.90
3944;DHT22;1986;52.546;13.428;2023-06-24T05:44:27;19.60;99.90
3944;DHT22;1986;52.546;13.428;2023-06-24T05:46:54;19.70;99.90
3944;DHT22;1986;52.546;13.428;2023-06-24T05:49:21;19.70;99.90
3944;DHT22;1986;52.546;13.428;2023-06-24T05:51:48;19.60;99.90
3944;DHT22;1986;52.546;13.428;2023-06-24T05:54:15;19.70;99.90
3944;DHT22;1986;52.546;13.428;2023-06-24T05:56:42;19.70;99.90
3944;DHT22;1986;52.546;13.428;2023-06-24T05:59:09;19.90;99.90
3944;DHT22;1986;52.546;13.428;2023-06-24T06:01:37;20.20;99.90
3944;DHT22;1986;52.546;13.428;2023-06-24T06:04:04;20.50;99.90
3944;DHT22;1986;52.546;13.428;2023-06-24T06:06:31;20.60;99.90
3944;DHT22;1986;52.546;13.428;2023-06-24T06:08:58;21.20;99.90
3944;DHT22;1986;52.546;13.428;2023-06-24T06:11:25;21.30;99.90
3944;DHT22;1986;52.546;13.428;2023-06-24T06:13:52;21.30;99.90
3944;DHT22;1986;52.546;13.428;2023-06-24T06:16:19;21.30;99.90
3944;DHT22;1986;52.546;13.428;2023-06-24T06:18:47;21.60;99.90
3944;DHT22;1986;52.546;13.428;2023-06-24T06:21:15;21.70;99.90
3944;DHT22;1986;52.546;13.428;2023-06-24T06:23:42;21.90;99.90
3944;DHT22;1986;52.546;13.428;2023-06-24T06:26:09;22.60;99.90
3944;DHT22;1986;52.546;13.428;2023-06-24T06:28:36;22.60;99.90
3944;DHT22;1986;52.546;13.428;2023-06-24T06:31:03;22.10;99.90
3944;DHT22;1986;52.546;13.428;2023-06-24T06:33:30;22.10;99.90
3944;DHT22;1986;52.546;13.428;2023-06-24T06:35:59;22.40;99.90
3944;DHT22;1986;52.546;13.428;2023-06-24T06:38:26;22.40;99.90
3944;DHT22;1986;52.546;13.428;2023-06-24T06:40:53;22.60;99.90
3944;DHT22;1986;52.546;13.428;2023-06-24T06:43:20;22.80;99.90
3944;DHT22;1986;52.546;13.428;2023-06-24T06:45:50;23.20;99.90
3944;DHT22;1986;52.546;13.428;2023-06-24T06:48:17;23.40;99.90
3944;DHT22;1986;52.546;13.428;2023-06-24T06:50:44;23.30;99.90
3944;DHT22;1986;52.546;13.428;2023-06-24T06:53:13;23.30;99.90
3944;DHT22;1986;52.546;13.428;2023-06-24T06:55:40;22.80;99.90
3944;DHT22;1986;52.546;13.428;2023-06-24T06:58:08;22.30;99.90
3944;DHT22;1986;52.546;13.428;2023-06-24T07:00:35;22.20;99.90
3944;DHT22;1986;52.546;13.428;2023-06-24T07:03:02;22.40;99.90
3944;DHT22;1986;52.546;13.428;2023-06-24T07:05:29;22.60;99.90
3944;DHT22;1986;52.546;13.428;2023-06-24T07:07:56;22.50;99.90
3944;DHT22;1986;52.546;13.428;2023-06-24T07:10:25;22.50;99.90
3944;DHT22;1986;52.546;13.428;2023-06-24T07:12:51;22.70;99.90
3944;DHT22;1986;52.546;13.428;2023-06-24T07:15:24;22.70;99.90
3944;DHT22;1986;52.546;13.428;2023-06-24T07:17:51;23.00;99.90
3944;DHT22;1986;52.546;13.428;2023-06-24T07:20:18;22.90;99.90
3944;DHT22;1986;52.546;13.428;2023-06-24T07:22:45;23.30;99.90
3944;DHT22;1986;52.546;13.428;2023-06-24T07:25:12;22.70;99.90
3944;DHT22;1986;52.546;13.428;2023-06-24T07:27:40;22.00;99.90
3944;DHT22;1986;52.546;13.428;2023-06-24T07:30:08;21.90;99.90
3944;DHT22;1986;52.546;13.428;2023-06-24T07:32:35;22.80;99.90
3944;DHT22;1986;52.546;13.428;2023-06-24T07:35:02;23.40;99.90
3944;DHT22;1986;52.546;13.428;2023-06-24T07:37:29;23.40;99.90
3944;DHT22;1986;52.546;13.428;2023-06-24T07:39:56;23.80;99.90
3944;DHT22;1986;52.546;13.428;2023-06-24T07:42:23;23.10;99.90
3944;DHT22;1986;52.546;13.428;2023-06-24T07:44:52;22.40;99.90
3944;DHT22;1986;52.546;13.428;2023-06-24T07:47:19;21.80;99.90
3944;DHT22;1986;52.546;13.428;2023-06-24T07:49:46;21.90;99.90
3944;DHT22;1986;52.546;13.428;2023-06-24T07:52:13;22.30;99.90
3944;DHT22;1986;52.546;13.428;2023-06-24T07:54:40;22.20;99.90
3944;DHT22;1986;52.546;13.428;2023-06-24T07:57:07;22.40;99.90
3944;DHT22;1986;52.546;13.428;2023-06-24T07:59:34;22.90;99.90
3944;DHT22;1986;52.546;13.428;2023-06-24T08:02:04;22.40;99.90
3944;DHT22;1986;52.546;13.428;2023-06-24T08:04:31;22.30;99.90
3944;DHT22;1986;52.546;13.428;2023-06-24T08:06:58;23.10;99.90
3944;DHT22;1986;52.546;13.428;2023-06-24T08:09:25;22.80;99.90
3944;DHT22;1986;52.546;13.428;2023-06-24T08:11:52;22.40;99.90
3944;DHT22;1986;52.546;13.428;2023-06-24T08:14:19;22.20;99.90
3944;DHT22;1986;52.546;13.428;2023-06-24T08:16:46;22.70;99.90
3944;DHT22;1986;52.546;13.428;2023-06-24T08:19:15;22.90;99.90
3944;DHT22;1986;52.546;13.428;2023-06-24T08:21:42;23.50;99.90
3944;DHT22;1986;52.546;13.428;2023-06-24T08:24:10;23.50;99.90
3944;DHT22;1986;52.546;13.428;2023-06-24T08:26:38;23.70;99.20
3944;DHT22;1986;52.546;13.428;2023-06-24T08:29:05;23.30;96.10
3944;DHT22;1986;52.546;13.428;2023-06-24T08:31:34;23.60;95.90
3944;DHT22;1986;52.546;13.428;2023-06-24T08:34:01;24.00;95.30
3944;DHT22;1986;52.546;13.428;2023-06-24T08:36:30;24.30;83.90
3944;DHT22;1986;52.546;13.428;2023-06-24T08:38:57;24.40;72.70
3944;DHT22;1986;52.546;13.428;2023-06-24T08:41:24;24.00;69.00
3944;DHT22;1986;52.546;13.428;2023-06-24T08:43:52;23.70;82.50
3944;DHT22;1986;52.546;13.428;2023-06-24T08:46:20;23.50;83.60
3944;DHT22;1986;52.546;13.428;2023-06-24T08:48:48;23.20;81.90
3944;DHT22;1986;52.546;13.428;2023-06-24T08:51:19;23.30;83.50
3944;DHT22;1986;52.546;13.428;2023-06-24T08:53:48;22.90;90.30
3944;DHT22;1986;52.546;13.428;2023-06-24T08:56:16;22.50;96.10
3944;DHT22;1986;52.546;13.428;2023-06-24T08:58:43;22.30;96.30
3944;DHT22;1986;52.546;13.428;2023-06-24T09:01:11;22.10;97.80
3944;DHT22;1986;52.546;13.428;2023-06-24T09:03:38;21.70;98.70
3944;DHT22;1986;52.546;13.428;2023-06-24T09:06:05;21.80;99.90
3944;DHT22;1986;52.546;13.428;2023-06-24T09:08:32;21.80;96.80
3944;DHT22;1986;52.546;13.428;2023-06-24T09:11:02;21.90;94.70
3944;DHT22;1986;52.546;13.428;2023-06-24T09:13:34;21.90;99.20
3944;DHT22;1986;52.546;13.428;2023-06-24T09:16:12;22.10;99.90
3944;DHT22;1986;52.546;13.428;2023-06-24T09:18:39;22.20;99.90
3944;DHT22;1986;52.546;13.428;2023-06-24T09:21:07;22.30;99.90
3944;DHT22;1986;52.546;13.428;2023-06-24T09:23:36;22.10;99.20
3944;DHT22;1986;52.546;13.428;2023-06-24T09:26:09;22.00;99.10
3944;DHT22;1986;52.546;13.428;2023-06-24T09:28:36;22.30;99.60
3944;DHT22;1986;52.546;13.428;2023-06-24T09:31:07;22.50;97.30
3944;DHT22;1986;52.546;13.428;2023-06-24T09:33:35;22.60;95.40
3944;DHT22;1986;52.546;13.428;2023-06-24T09:36:03;22.60;96.30
3944;DHT22;1986;52.546;13.428;2023-06-24T09:38:35;22.50;95.60
3944;DHT22;1986;52.546;13.428;2023-06-24T09:41:05;22.40;95.50
3944;DHT22;1986;52.546;13.428;2023-06-24T09:43:34;22.50;92.50
3944;DHT22;1986;52.546;13.428;2023-06-24T09:46:02;22.00;89.40
3944;DHT22;1986;52.546;13.428;2023-06-24T09:48:29;22.00;92.90
3944;DHT22;1986;52.546;13.428;2023-06-24T09:50:58;22.00;93.90
3944;DHT22;1986;52.546;13.428;2023-06-24T09:53:27;22.10;94.40
3944;DHT22;1986;52.546;13.428;2023-06-24T09:55:54;22.20;93.30
3944;DHT22;1986;52.546;13.428;2023-06-24T09:58:24;22.30;92.80
3944;DHT22;1986;52.546;13.428;2023-06-24T10:00:51;22.40;90.00
3944;DHT22;1986;52.546;13.428;2023-06-24T10:03:19;22.40;90.00
3944;DHT22;1986;52.546;13.428;2023-06-24T10:05:46;22.30;78.20
3944;DHT22;1986;52.546;13.428;2023-06-24T10:08:14;22.30;74.60
3944;DHT22;1986;52.546;13.428;2023-06-24T10:10:41;22.40;72.90
3944;DHT22;1986;52.546;13.428;2023-06-24T10:13:08;22.40;67.30
3944;DHT22;1986;52.546;13.428;2023-06-24T10:15:36;22.40;64.20
3944;DHT22;1986;52.546;13.428;2023-06-24T10:18:33;22.50;59.20
3944;DHT22;1986;52.546;13.428;2023-06-24T10:21:04;22.50;54.30
3944;DHT22;1986;52.546;13.428;2023-06-24T10:23:33;22.50;54.40
3944;DHT22;1986;52.546;13.428;2023-06-24T10:26:00;22.50;51.90
3944;DHT22;1986;52.546;13.428;2023-06-24T10:31:53;22.60;48.80
3944;DHT22;1986;52.546;13.428;2023-06-24T10:34:24;22.80;56.60
3944;DHT22;1986;52.546;13.428;2023-06-24T10:36:54;22.40;53.70
3944;DHT22;1986;52.546;13.428;2023-06-24T10:39:55;22.60;66.70
3944;DHT22;1986;52.546;13.428;2023-06-24T10:42:30;22.60;64.50
3944;DHT22;1986;52.546;13.428;2023-06-24T10:44:59;22.70;68.90
3944;DHT22;1986;52.546;13.428;2023-06-24T10:47:29;23.00;66.70
3944;DHT22;1986;52.546;13.428;2023-06-24T10:49:56;23.20;64.10
3944;DHT22;1986;52.546;13.428;2023-06-24T10:52:23;23.40;57.30
3944;DHT22;1986;52.546;13.428;2023-06-24T10:54:52;23.60;55.90
3944;DHT22;1986;52.546;13.428;2023-06-24T10:57:23;23.60;46.10
3944;DHT22;1986;52.546;13.428;2023-06-24T10:59:52;23.30;42.60
3944;DHT22;1986;52.546;13.428;2023-06-24T11:02:20;23.20;51.50
3944;DHT22;1986;52.546;13.428;2023-06-24T11:04:52;23.30;52.80
3944;DHT22;1986;52.546;13.428;2023-06-24T11:07:21;23.10;45.80
3944;DHT22;1986;52.546;13.428;2023-06-24T11:09:50;23.00;51.70
3944;DHT22;1986;52.546;13.428;2023-06-24T11:12:19;23.00;48.40
3944;DHT22;1986;52.546;13.428;2023-06-24T11:14:55;22.90;45.40
3944;DHT22;1986;52.546;13.428;2023-06-24T11:17:22;23.10;51.30
3944;DHT22;1986;52.546;13.428;2023-06-24T11:19:53;23.30;54.50
3944;DHT22;1986;52.546;13.428;2023-06-24T11:22:21;23.20;47.80
3944;DHT22;1986;52.546;13.428;2023-06-24T11:24:48;23.40;49.20
3944;DHT22;1986;52.546;13.428;2023-06-24T11:27:15;23.60;39.20
3944;DHT22;1986;52.546;13.428;2023-06-24T11:29:42;23.60;31.70
3944;DHT22;1986;52.546;13.428;2023-06-24T11:32:11;23.60;32.00
3944;DHT22;1986;52.546;13.428;2023-06-24T11:34:38;23.60;30.70
3944;DHT22;1986;52.546;13.428;2023-06-24T11:37:30;23.50;26.30
3944;DHT22;1986;52.546;13.428;2023-06-24T11:40:01;23.50;27.30
3944;DHT22;1986;52.546;13.428;2023-06-24T11:42:30;23.50;24.20
3944;DHT22;1986;52.546;13.428;2023-06-24T11:45:01;23.70;14.80
3944;DHT22;1986;52.546;13.428;2023-06-24T11:47:31;23.70;6.30
3944;DHT22;1986;52.546;13.428;2023-06-24T11:49:59;23.70;1.00
3944;DHT22;1986;52.546;13.428;2023-06-24T11:52:38;23.70;1.00
3944;DHT22;1986;52.546;13.428;2023-06-24T11:55:11;23.50;1.00
3944;DHT22;1986;52.546;13.428;2023-06-24T11:57:50;23.60;1.00
3944;DHT22;1986;52.546;13.428;2023-06-24T12:00:20;23.70;1.00
3944;DHT22;1986;52.546;13.428;2023-06-24T12:02:50;23.60;1.00
3944;DHT22;1986;52.546;13.428;2023-06-24T12:05:24;23.50;1.00
3944;DHT22;1986;52.546;13.428;2023-06-24T12:07:54;23.50;1.00
3944;DHT22;1986;52.546;13.428;2023-06-24T12:10:22;23.70;1.00
3944;DHT22;1986;52.546;13.428;2023-06-24T12:12:49;23.80;1.00
3944;DHT22;1986;52.546;13.428;2023-06-24T12:15:15;24.00;1.00
3944;DHT22;1986;52.546;13.428;2023-06-24T12:17:42;24.20;1.00
3944;DHT22;1986;52.546;13.428;2023-06-24T12:20:10;24.20;1.00
3944;DHT22;1986;52.546;13.428;2023-06-24T12:22:39;24.20;1.00
3944;DHT22;1986;52.546;13.428;2023-06-24T12:25:08;24.10;1.00
3944;DHT22;1986;52.546;13.428;2023-06-24T12:27:36;24.20;1.00
3944;DHT22;1986;52.546;13.428;2023-06-24T12:30:03;24.50;1.00
3944;DHT22;1986;52.546;13.428;2023-06-24T12:32:30;24.60;95.20
3944;DHT22;1986;52.546;13.428;2023-06-24T12:34:57;24.60;95.50
3944;DHT22;1986;52.546;13.428;2023-06-24T12:37:24;24.80;95.10
3944;DHT22;1986;52.546;13.428;2023-06-24T12:39:51;24.90;94.80
3944;DHT22;1986;52.546;13.428;2023-06-24T12:42:19;25.00;94.00
3944;DHT22;1986;52.546;13.428;2023-06-24T12:44:46;25.10;92.80
3944;DHT22;1986;52.546;13.428;2023-06-24T12:47:13;25.00;93.30
3944;DHT22;1986;52.546;13.428;2023-06-24T12:49:40;24.80;93.40
3944;DHT22;1986;52.546;13.428;2023-06-24T12:52:07;24.90;94.40
3944;DHT22;1986;52.546;13.428;2023-06-24T12:54:34;24.70;95.00
3944;DHT22;1986;52.546;13.428;2023-06-24T12:57:01;24.80;95.00
3944;DHT22;1986;52.546;13.428;2023-06-24T12:59:30;24.90;95.40
3944;DHT22;1986;52.546;13.428;2023-06-24T13:01:57;24.90;95.50
3944;DHT22;1986;52.546;13.428;2023-06-24T13:04:24;24.90;94.70
3944;DHT22;1986;52.546;13.428;2023-06-24T13:06:53;24.60;94.80
3944;DHT22;1986;52.546;13.428;2023-06-24T13:09:20;24.60;96.50
3944;DHT22;1986;52.546;13.428;2023-06-24T13:11:47;24.70;96.10
3944;DHT22;1986;52.546;13.428;2023-06-24T13:14:15;24.80;68.20
3944;DHT22;1986;52.546;13.428;2023-06-24T13:16:43;24.80;54.80
3944;DHT22;1986;52.546;13.428;2023-06-24T13:19:10;24.90;1.00
3944;DHT22;1986;52.546;13.428;2023-06-24T13:21:38;24.90;1.00
3944;DHT22;1986;52.546;13.428;2023-06-24T13:24:07;24.80;1.00
3944;DHT22;1986;52.546;13.428;2023-06-24T13:26:34;24.80;1.00
3944;DHT22;1986;52.546;13.428;2023-06-24T13:29:01;24.90;99.90
3944;DHT22;1986;52.546;13.428;2023-06-24T13:31:28;24.90;99.90
3944;DHT22;1986;52.546;13.428;2023-06-24T13:33:56;25.00;54.60
3944;DHT22;1986;52.546;13.428;2023-06-24T13:36:31;25.00;18.50
3944;DHT22;1986;52.546;13.428;2023-06-24T13:39:01;25.10;99.90
3944;DHT22;1986;52.546;13.428;2023-06-24T13:41:28;25.10;99.90
3944;DHT22;1986;52.546;13.428;2023-06-24T13:43:58;25.10;50.60
3944;DHT22;1986;52.546;13.428;2023-06-24T13:46:25;25.00;12.30
3944;DHT22;1986;52.546;13.428;2023-06-24T13:48:52;25.00;1.00
3944;DHT22;1986;52.546;13.428;2023-06-24T13:51:20;25.00;1.00
3944;DHT22;1986;52.546;13.428;2023-06-24T13:53:48;25.00;1.00
3944;DHT22;1986;52.546;13.428;2023-06-24T13:56:16;25.00;1.00
3944;DHT22;1986;52.546;13.428;2023-06-24T13:58:43;24.90;11.20
3944;DHT22;1986;52.546;13.428;2023-06-24T14:01:10;25.00;99.90
3944;DHT22;1986;52.546;13.428;2023-06-24T14:03:38;25.10;99.90
3944;DHT22;1986;52.546;13.428;2023-06-24T14:06:05;25.10;85.80
3944;DHT22;1986;52.546;13.428;2023-06-24T14:08:34;25.10;1.00
3944;DHT22;1986;52.546;13.428;2023-06-24T14:11:02;25.20;1.00
3944;DHT22;1986;52.546;13.428;2023-06-24T14:13:29;25.20;1.00
3944;DHT22;1986;52.546;13.428;2023-06-24T14:15:57;25.40;1.00
3944;DHT22;1986;52.546;13.428;2023-06-24T14:18:24;25.50;1.00
3944;DHT22;1986;52.546;13.428;2023-06-24T14:20:51;25.60;1.00
3944;DHT22;1986;52.546;13.428;2023-06-24T14:23:19;25.60;99.90
3944;DHT22;1986;52.546;13.428;2023-06-24T14:25:47;25.50;99.90
3944;DHT22;1986;52.546;13.428;2023-06-24T14:28:17;25.20;99.90
3944;DHT22;1986;52.546;13.428;2023-06-24T14:30:44;25.40;1.00
3944;DHT22;1986;52.546;13.428;2023-06-24T14:33:13;25.50;1.00
3944;DHT22;1986;52.546;13.428;2023-06-24T14:35:40;25.60;1.00
3944;DHT22;1986;52.546;13.428;2023-06-24T14:38:07;25.70;1.00
3944;DHT22;1986;52.546;13.428;2023-06-24T14:40:35;25.70;1.00
3944;DHT22;1986;52.546;13.428;2023-06-24T14:43:03;25.80;99.90
3944;DHT22;1986;52.546;13.428;2023-06-24T14:45:30;25.90;1.00
3944;DHT22;1986;52.546;13.428;2023-06-24T14:47:57;25.90;66.00
3944;DHT22;1986;52.546;13.428;2023-06-24T14:50:24;25.90;89.20
3944;DHT22;1986;52.546;13.428;2023-06-24T14:52:51;25.70;90.10
3944;DHT22;1986;52.546;13.428;2023-06-24T14:55:18;25.70;91.00
3944;DHT22;1986;52.546;13.428;2023-06-24T14:57:45;25.70;92.90
3944;DHT22;1986;52.546;13.428;2023-06-24T15:00:14;25.70;93.10
3944;DHT22;1986;52.546;13.428;2023-06-24T15:02:41;25.70;93.00
3944;DHT22;1986;52.546;13.428;2023-06-24T15:05:08;25.70;92.80
3944;DHT22;1986;52.546;13.428;2023-06-24T15:07:35;25.60;92.80
3944;DHT22;1986;52.546;13.428;2023-06-24T15:10:04;25.30;92.80
3944;DHT22;1986;52.546;13.428;2023-06-24T15:12:31;25.40;93.00
3944;DHT22;1986;52.546;13.428;2023-06-24T15:15:00;25.60;93.00
3944;DHT22;1986;52.546;13.428;2023-06-24T15:17:28;25.70;92.90
3944;DHT22;1986;52.546;13.428;2023-06-24T15:19:56;25.70;92.60
3944;DHT22;1986;52.546;13.428;2023-06-24T15:22:23;25.50;93.00
3944;DHT22;1986;52.546;13.428;2023-06-24T15:24:50;25.60;93.20
3944;DHT22;1986;52.546;13.428;2023-06-24T15:27:17;25.70;93.20
3944;DHT22;1986;52.546;13.428;2023-06-24T15:29:43;25.70;93.20
3944;DHT22;1986;52.546;13.428;2023-06-24T15:32:10;25.90;92.80
3944;DHT22;1986;52.546;13.428;2023-06-24T15:34:39;25.80;93.00
3944;DHT22;1986;52.546;13.428;2023-06-24T15:37:06;26.00;92.60
3944;DHT22;1986;52.546;13.428;2023-06-24T15:39:33;26.00;92.70
3944;DHT22;1986;52.546;13.428;2023-06-24T15:42:00;26.00;92.50
3944;DHT22;1986;52.546;13.428;2023-06-24T15:44:27;25.80;93.20
3944;DHT22;1986;52.546;13.428;2023-06-24T15:46:55;25.80;93.30
3944;DHT22;1986;52.546;13.428;2023-06-24T15:49:22;26.00;93.00
3944;DHT22;1986;52.546;13.428;2023-06-24T15:51:52;26.00;92.90
3944;DHT22;1986;52.546;13.428;2023-06-24T15:54:19;26.10;93.40
3944;DHT22;1986;52.546;13.428;2023-06-24T15:56:46;26.20;92.60
3944;DHT22;1986;52.546;13.428;2023-06-24T15:59:13;25.90;92.50